KGFA/GFA METAR and TAF weather

Enter ICAO airport designator
Station Type Date Time Source
KGFA METAR 2020/07/12 01:58 UTC NOAA

KGFA 120158Z AUTO 18004KT 10SM CLR 26/13 A2999 RMK AO2 SLP138 T02580128 $


Station Type Date Time Source
KGFA Decoded METAR 2020/07/12 01:58 UTC NOAA

Malmstrom Air Force Base, MT, United States (KGFA) 47-30N 111-11W
Jul 11, 2020 - 09:58 PM EDT / 2020.07.12 0158 UTC
Wind: from the S (180 degrees) at 5 MPH (4 KT):0
Visibility: 10 mile(s):0
Sky conditions: clear
Temperature: 78.4 F (25.8 C)
Dew Point: 55.0 F (12.8 C)
Relative Humidity: 44%
Pressure (altimeter): 29.99 in. Hg (1015 hPa)
ob: KGFA 120158Z AUTO 18004KT 10SM CLR 26/13 A2999 RMK AO2 SLP138 T02580128
cycle: 2

Station Type Date Time Source
KGFA TAF 2020/07/11 19:15 UTC NOAA

TAF KGFA 111900Z 1119/1301 25010G15KT 9999 FEW120 QNH3010INS
BECMG 1200/1201 VRB06KT 9999 FEW150 QNH2986INS
BECMG 1223/1224 24015G25KT 9999 SCT150 QNH2986INS TX30/1122Z TN10/1212Z

Example: see airport list